Airport ICAO


11:54 UTC

22°C

Clear skies


An affordable passengers' Moving Map for your aircraft. Made for the iPad and the iPhone
More information here

EGMD Lydd


Lydd UNITED KINGDOM   VFR CAVOK


METAR EGMD 191150Z 15005KT 100V230 CAVOK 22/11 Q1024 0h04min

TAF EGMD 191054Z 1912/1921 19005KT CAVOK PROB30 TEMPO 1912/1921 8000 1h00min





NOTAMS

OPEN